sensor_id;sensor_type;location;lat;lon;timestamp;P1;durP1;ratioP1;P2;durP2;ratioP2
7162;SDS011;3623;47.098;15.446;2023-03-13T00:01:21;5.53;;;5.00;;
7162;SDS011;3623;47.098;15.446;2023-03-13T00:03:50;5.15;;;4.65;;
7162;SDS011;3623;47.098;15.446;2023-03-13T00:06:21;5.20;;;4.70;;
7162;SDS011;3623;47.098;15.446;2023-03-13T00:08:49;4.75;;;4.35;;
7162;SDS011;3623;47.098;15.446;2023-03-13T00:11:17;5.50;;;5.10;;
7162;SDS011;3623;47.098;15.446;2023-03-13T00:13:44;5.05;;;4.35;;
7162;SDS011;3623;47.098;15.446;2023-03-13T00:16:13;5.22;;;4.72;;
7162;SDS011;3623;47.098;15.446;2023-03-13T00:18:43;4.93;;;4.55;;
7162;SDS011;3623;47.098;15.446;2023-03-13T00:21:11;5.22;;;4.50;;
7162;SDS011;3623;47.098;15.446;2023-03-13T00:23:39;5.25;;;4.75;;
7162;SDS011;3623;47.098;15.446;2023-03-13T00:26:09;6.78;;;4.63;;
7162;SDS011;3623;47.098;15.446;2023-03-13T00:28:37;4.93;;;4.53;;
7162;SDS011;3623;47.098;15.446;2023-03-13T00:31:06;5.00;;;4.50;;
7162;SDS011;3623;47.098;15.446;2023-03-13T00:33:37;5.00;;;4.40;;
7162;SDS011;3623;47.098;15.446;2023-03-13T00:36:05;4.35;;;4.05;;
7162;SDS011;3623;47.098;15.446;2023-03-13T00:38:34;6.03;;;5.05;;
7162;SDS011;3623;47.098;15.446;2023-03-13T00:41:02;5.28;;;4.88;;
7162;SDS011;3623;47.098;15.446;2023-03-13T00:43:31;5.00;;;4.60;;
7162;SDS011;3623;47.098;15.446;2023-03-13T00:45:58;5.28;;;4.80;;
7162;SDS011;3623;47.098;15.446;2023-03-13T00:48:26;4.68;;;4.13;;
7162;SDS011;3623;47.098;15.446;2023-03-13T00:50:54;5.30;;;4.80;;
7162;SDS011;3623;47.098;15.446;2023-03-13T00:53:22;5.47;;;4.97;;
7162;SDS011;3623;47.098;15.446;2023-03-13T00:55:53;5.40;;;4.90;;
7162;SDS011;3623;47.098;15.446;2023-03-13T00:58:21;5.47;;;4.60;;
7162;SDS011;3623;47.098;15.446;2023-03-13T01:00:49;6.75;;;5.35;;
7162;SDS011;3623;47.098;15.446;2023-03-13T01:03:17;8.43;;;4.95;;
7162;SDS011;3623;47.098;15.446;2023-03-13T01:05:58;5.97;;;4.43;;
7162;SDS011;3623;47.098;15.446;2023-03-13T01:08:27;5.45;;;4.95;;
7162;SDS011;3623;47.098;15.446;2023-03-13T01:10:58;5.90;;;5.40;;
7162;SDS011;3623;47.098;15.446;2023-03-13T01:13:26;5.65;;;5.18;;
7162;SDS011;3623;47.098;15.446;2023-03-13T01:16:00;7.18;;;6.05;;
7162;SDS011;3623;47.098;15.446;2023-03-13T01:18:28;5.47;;;4.97;;
7162;SDS011;3623;47.098;15.446;2023-03-13T01:20:57;6.07;;;4.82;;
7162;SDS011;3623;47.098;15.446;2023-03-13T01:23:24;5.70;;;5.15;;
7162;SDS011;3623;47.098;15.446;2023-03-13T01:25:53;5.30;;;4.80;;
7162;SDS011;3623;47.098;15.446;2023-03-13T01:28:20;5.30;;;4.90;;
7162;SDS011;3623;47.098;15.446;2023-03-13T01:30:47;6.30;;;4.97;;
7162;SDS011;3623;47.098;15.446;2023-03-13T01:33:14;5.60;;;5.20;;
7162;SDS011;3623;47.098;15.446;2023-03-13T01:35:43;7.20;;;4.85;;
7162;SDS011;3623;47.098;15.446;2023-03-13T01:38:12;5.00;;;4.57;;
7162;SDS011;3623;47.098;15.446;2023-03-13T01:40:39;5.60;;;5.10;;
7162;SDS011;3623;47.098;15.446;2023-03-13T01:43:18;7.25;;;5.88;;
7162;SDS011;3623;47.098;15.446;2023-03-13T01:45:53;5.57;;;5.05;;
7162;SDS011;3623;47.098;15.446;2023-03-13T01:48:24;5.55;;;5.07;;
7162;SDS011;3623;47.098;15.446;2023-03-13T01:50:57;5.10;;;4.50;;
7162;SDS011;3623;47.098;15.446;2023-03-13T01:53:29;4.88;;;4.47;;
7162;SDS011;3623;47.098;15.446;2023-03-13T01:56:00;5.47;;;4.88;;
7162;SDS011;3623;47.098;15.446;2023-03-13T01:58:34;5.00;;;4.60;;
7162;SDS011;3623;47.098;15.446;2023-03-13T02:01:02;5.80;;;5.30;;
7162;SDS011;3623;47.098;15.446;2023-03-13T02:03:30;4.93;;;4.45;;
7162;SDS011;3623;47.098;15.446;2023-03-13T02:05:58;6.15;;;4.78;;
7162;SDS011;3623;47.098;15.446;2023-03-13T02:08:33;9.48;;;5.47;;
7162;SDS011;3623;47.098;15.446;2023-03-13T02:11:06;7.13;;;4.85;;
7162;SDS011;3623;47.098;15.446;2023-03-13T02:13:41;7.75;;;5.10;;
7162;SDS011;3623;47.098;15.446;2023-03-13T02:16:11;6.10;;;5.50;;
7162;SDS011;3623;47.098;15.446;2023-03-13T02:18:38;5.93;;;4.55;;
7162;SDS011;3623;47.098;15.446;2023-03-13T02:21:07;5.03;;;4.63;;
7162;SDS011;3623;47.098;15.446;2023-03-13T02:23:43;5.47;;;4.97;;
7162;SDS011;3623;47.098;15.446;2023-03-13T02:26:19;5.55;;;5.13;;
7162;SDS011;3623;47.098;15.446;2023-03-13T02:28:46;4.95;;;4.50;;
7162;SDS011;3623;47.098;15.446;2023-03-13T02:31:14;5.15;;;4.65;;
7162;SDS011;3623;47.098;15.446;2023-03-13T02:33:41;5.53;;;5.03;;
7162;SDS011;3623;47.098;15.446;2023-03-13T02:36:10;5.40;;;4.30;;
7162;SDS011;3623;47.098;15.446;2023-03-13T02:38:41;5.22;;;4.70;;
7162;SDS011;3623;47.098;15.446;2023-03-13T02:41:14;5.47;;;4.38;;
7162;SDS011;3623;47.098;15.446;2023-03-13T02:43:44;4.95;;;4.25;;
7162;SDS011;3623;47.098;15.446;2023-03-13T02:46:14;7.50;;;4.30;;
7162;SDS011;3623;47.098;15.446;2023-03-13T02:48:43;4.45;;;4.15;;
7162;SDS011;3623;47.098;15.446;2023-03-13T02:51:13;6.05;;;5.07;;
7162;SDS011;3623;47.098;15.446;2023-03-13T02:53:46;5.57;;;4.70;;
7162;SDS011;3623;47.098;15.446;2023-03-13T02:56:20;6.35;;;5.07;;
7162;SDS011;3623;47.098;15.446;2023-03-13T02:58:52;4.95;;;4.50;;
7162;SDS011;3623;47.098;15.446;2023-03-13T03:01:19;5.43;;;4.60;;
7162;SDS011;3623;47.098;15.446;2023-03-13T03:03:46;6.30;;;4.90;;
7162;SDS011;3623;47.098;15.446;2023-03-13T03:06:20;6.38;;;5.78;;
7162;SDS011;3623;47.098;15.446;2023-03-13T03:08:47;4.38;;;4.03;;
7162;SDS011;3623;47.098;15.446;2023-03-13T03:11:15;6.20;;;4.55;;
7162;SDS011;3623;47.098;15.446;2023-03-13T03:13:42;7.35;;;5.45;;
7162;SDS011;3623;47.098;15.446;2023-03-13T03:16:21;7.18;;;4.38;;
7162;SDS011;3623;47.098;15.446;2023-03-13T03:18:48;5.70;;;5.20;;
7162;SDS011;3623;47.098;15.446;2023-03-13T03:21:15;5.72;;;4.57;;
7162;SDS011;3623;47.098;15.446;2023-03-13T03:23:42;7.05;;;4.15;;
7162;SDS011;3623;47.098;15.446;2023-03-13T03:26:11;4.75;;;4.35;;
7162;SDS011;3623;47.098;15.446;2023-03-13T03:28:38;5.75;;;5.20;;
7162;SDS011;3623;47.098;15.446;2023-03-13T03:31:06;5.90;;;4.50;;
7162;SDS011;3623;47.098;15.446;2023-03-13T03:33:37;6.60;;;4.80;;
7162;SDS011;3623;47.098;15.446;2023-03-13T03:36:07;4.65;;;4.22;;
7162;SDS011;3623;47.098;15.446;2023-03-13T03:38:36;4.57;;;4.07;;
7162;SDS011;3623;47.098;15.446;2023-03-13T03:41:07;4.93;;;4.53;;
7162;SDS011;3623;47.098;15.446;2023-03-13T03:43:35;4.75;;;4.25;;
7162;SDS011;3623;47.098;15.446;2023-03-13T03:46:04;6.32;;;4.93;;
7162;SDS011;3623;47.098;15.446;2023-03-13T03:48:32;4.40;;;4.10;;
7162;SDS011;3623;47.098;15.446;2023-03-13T03:51:01;4.90;;;3.65;;
7162;SDS011;3623;47.098;15.446;2023-03-13T03:53:28;5.05;;;4.65;;
7162;SDS011;3623;47.098;15.446;2023-03-13T03:55:56;4.93;;;4.60;;
7162;SDS011;3623;47.098;15.446;2023-03-13T03:58:24;4.20;;;3.83;;
7162;SDS011;3623;47.098;15.446;2023-03-13T04:00:51;5.03;;;4.15;;
7162;SDS011;3623;47.098;15.446;2023-03-13T04:03:18;4.80;;;4.10;;
7162;SDS011;3623;47.098;15.446;2023-03-13T04:05:46;5.20;;;4.75;;
7162;SDS011;3623;47.098;15.446;2023-03-13T04:08:15;5.32;;;4.30;;
7162;SDS011;3623;47.098;15.446;2023-03-13T04:10:42;8.32;;;4.78;;
7162;SDS011;3623;47.098;15.446;2023-03-13T04:13:09;4.18;;;3.83;;
7162;SDS011;3623;47.098;15.446;2023-03-13T04:15:36;5.32;;;4.93;;
7162;SDS011;3623;47.098;15.446;2023-03-13T04:18:03;4.70;;;4.15;;
7162;SDS011;3623;47.098;15.446;2023-03-13T04:20:31;5.28;;;4.70;;
7162;SDS011;3623;47.098;15.446;2023-03-13T04:22:58;4.78;;;4.47;;
7162;SDS011;3623;47.098;15.446;2023-03-13T04:25:28;4.65;;;4.10;;
7162;SDS011;3623;47.098;15.446;2023-03-13T04:27:55;5.65;;;5.15;;
7162;SDS011;3623;47.098;15.446;2023-03-13T04:30:22;4.85;;;4.47;;
7162;SDS011;3623;47.098;15.446;2023-03-13T04:32:49;7.47;;;4.63;;
7162;SDS011;3623;47.098;15.446;2023-03-13T04:35:17;4.97;;;4.47;;
7162;SDS011;3623;47.098;15.446;2023-03-13T04:37:44;4.30;;;3.92;;
7162;SDS011;3623;47.098;15.446;2023-03-13T04:40:11;5.85;;;5.05;;
7162;SDS011;3623;47.098;15.446;2023-03-13T04:42:40;9.02;;;5.03;;
7162;SDS011;3623;47.098;15.446;2023-03-13T04:45:09;7.43;;;4.93;;
7162;SDS011;3623;47.098;15.446;2023-03-13T04:47:37;4.05;;;3.75;;
7162;SDS011;3623;47.098;15.446;2023-03-13T04:50:05;3.97;;;3.63;;
7162;SDS011;3623;47.098;15.446;2023-03-13T04:52:32;5.05;;;4.53;;
7162;SDS011;3623;47.098;15.446;2023-03-13T04:55:00;7.32;;;4.40;;
7162;SDS011;3623;47.098;15.446;2023-03-13T04:57:27;4.40;;;3.97;;
7162;SDS011;3623;47.098;15.446;2023-03-13T04:59:56;5.63;;;4.75;;
7162;SDS011;3623;47.098;15.446;2023-03-13T05:02:23;6.05;;;4.32;;
7162;SDS011;3623;47.098;15.446;2023-03-13T05:04:54;5.95;;;4.00;;
7162;SDS011;3623;47.098;15.446;2023-03-13T05:07:21;5.38;;;4.35;;
7162;SDS011;3623;47.098;15.446;2023-03-13T05:09:48;4.47;;;4.18;;
7162;SDS011;3623;47.098;15.446;2023-03-13T05:12:15;8.77;;;4.30;;
7162;SDS011;3623;47.098;15.446;2023-03-13T05:14:42;4.32;;;4.03;;
7162;SDS011;3623;47.098;15.446;2023-03-13T05:17:11;5.00;;;4.60;;
7162;SDS011;3623;47.098;15.446;2023-03-13T05:19:38;5.10;;;4.65;;
7162;SDS011;3623;47.098;15.446;2023-03-13T05:22:05;6.78;;;4.97;;
7162;SDS011;3623;47.098;15.446;2023-03-13T05:24:40;6.60;;;6.05;;
7162;SDS011;3623;47.098;15.446;2023-03-13T05:27:07;5.57;;;4.97;;
7162;SDS011;3623;47.098;15.446;2023-03-13T05:29:34;5.13;;;4.63;;
7162;SDS011;3623;47.098;15.446;2023-03-13T05:32:01;4.90;;;4.50;;
7162;SDS011;3623;47.098;15.446;2023-03-13T05:34:36;5.00;;;4.60;;
7162;SDS011;3623;47.098;15.446;2023-03-13T05:37:04;5.38;;;4.85;;
7162;SDS011;3623;47.098;15.446;2023-03-13T05:39:31;5.55;;;4.68;;
7162;SDS011;3623;47.098;15.446;2023-03-13T05:41:58;6.38;;;4.72;;
7162;SDS011;3623;47.098;15.446;2023-03-13T05:44:30;7.07;;;4.53;;
7162;SDS011;3623;47.098;15.446;2023-03-13T05:46:57;4.40;;;4.10;;
7162;SDS011;3623;47.098;15.446;2023-03-13T05:49:24;4.50;;;4.10;;
7162;SDS011;3623;47.098;15.446;2023-03-13T05:51:53;4.20;;;3.95;;
7162;SDS011;3623;47.098;15.446;2023-03-13T05:54:24;6.35;;;4.28;;
7162;SDS011;3623;47.098;15.446;2023-03-13T05:56:52;4.43;;;4.03;;
7162;SDS011;3623;47.098;15.446;2023-03-13T05:59:19;6.15;;;5.65;;
7162;SDS011;3623;47.098;15.446;2023-03-13T06:01:46;4.68;;;4.32;;
7162;SDS011;3623;47.098;15.446;2023-03-13T06:04:15;12.68;;;4.28;;
7162;SDS011;3623;47.098;15.446;2023-03-13T06:06:42;4.85;;;4.45;;
7162;SDS011;3623;47.098;15.446;2023-03-13T06:09:10;5.53;;;4.50;;
7162;SDS011;3623;47.098;15.446;2023-03-13T06:11:37;4.97;;;4.47;;
7162;SDS011;3623;47.098;15.446;2023-03-13T06:14:05;5.30;;;4.80;;
7162;SDS011;3623;47.098;15.446;2023-03-13T06:16:32;4.57;;;4.30;;
7162;SDS011;3623;47.098;15.446;2023-03-13T06:19:00;10.57;;;5.32;;
7162;SDS011;3623;47.098;15.446;2023-03-13T06:21:27;6.05;;;5.43;;
7162;SDS011;3623;47.098;15.446;2023-03-13T06:23:54;6.05;;;5.38;;
7162;SDS011;3623;47.098;15.446;2023-03-13T06:26:31;11.32;;;5.85;;
7162;SDS011;3623;47.098;15.446;2023-03-13T06:28:58;11.07;;;6.70;;
7162;SDS011;3623;47.098;15.446;2023-03-13T06:31:25;9.32;;;7.43;;
7162;SDS011;3623;47.098;15.446;2023-03-13T06:33:52;7.28;;;6.28;;
7162;SDS011;3623;47.098;15.446;2023-03-13T06:36:21;8.48;;;6.07;;
7162;SDS011;3623;47.098;15.446;2023-03-13T06:38:49;8.55;;;5.45;;
7162;SDS011;3623;47.098;15.446;2023-03-13T06:41:16;7.35;;;5.43;;
7162;SDS011;3623;47.098;15.446;2023-03-13T06:43:45;7.28;;;4.97;;
7162;SDS011;3623;47.098;15.446;2023-03-13T06:46:14;8.15;;;5.30;;
7162;SDS011;3623;47.098;15.446;2023-03-13T06:48:46;7.45;;;5.75;;
7162;SDS011;3623;47.098;15.446;2023-03-13T06:51:14;5.97;;;5.00;;
7162;SDS011;3623;47.098;15.446;2023-03-13T06:53:42;10.63;;;6.20;;
7162;SDS011;3623;47.098;15.446;2023-03-13T06:58:41;9.23;;;5.50;;
7162;SDS011;3623;47.098;15.446;2023-03-13T07:01:10;8.45;;;4.75;;
7162;SDS011;3623;47.098;15.446;2023-03-13T07:03:38;4.88;;;4.45;;
7162;SDS011;3623;47.098;15.446;2023-03-13T07:06:08;5.53;;;4.72;;
7162;SDS011;3623;47.098;15.446;2023-03-13T07:08:36;4.72;;;4.32;;
7162;SDS011;3623;47.098;15.446;2023-03-13T07:11:04;6.88;;;4.85;;
7162;SDS011;3623;47.098;15.446;2023-03-13T07:13:33;9.15;;;4.20;;
7162;SDS011;3623;47.098;15.446;2023-03-13T07:16:10;4.43;;;4.03;;
7162;SDS011;3623;47.098;15.446;2023-03-13T07:18:38;7.25;;;4.80;;
7162;SDS011;3623;47.098;15.446;2023-03-13T07:21:09;6.78;;;4.43;;
7162;SDS011;3623;47.098;15.446;2023-03-13T07:23:37;4.80;;;4.38;;
7162;SDS011;3623;47.098;15.446;2023-03-13T07:26:17;8.85;;;5.72;;
7162;SDS011;3623;47.098;15.446;2023-03-13T07:28:45;6.63;;;5.40;;
7162;SDS011;3623;47.098;15.446;2023-03-13T07:31:15;6.15;;;5.53;;
7162;SDS011;3623;47.098;15.446;2023-03-13T07:33:43;4.72;;;4.32;;
7162;SDS011;3623;47.098;15.446;2023-03-13T07:36:12;5.28;;;4.78;;
7162;SDS011;3623;47.098;15.446;2023-03-13T07:38:41;6.32;;;5.00;;
7162;SDS011;3623;47.098;15.446;2023-03-13T07:41:09;5.05;;;4.25;;
7162;SDS011;3623;47.098;15.446;2023-03-13T07:43:38;6.35;;;4.80;;
7162;SDS011;3623;47.098;15.446;2023-03-13T07:46:07;5.40;;;4.90;;
7162;SDS011;3623;47.098;15.446;2023-03-13T07:48:38;6.75;;;6.00;;
7162;SDS011;3623;47.098;15.446;2023-03-13T07:51:09;5.03;;;4.15;;
7162;SDS011;3623;47.098;15.446;2023-03-13T07:53:38;5.50;;;5.00;;
7162;SDS011;3623;47.098;15.446;2023-03-13T07:58:37;7.53;;;5.50;;
7162;SDS011;3623;47.098;15.446;2023-03-13T08:01:07;5.53;;;4.60;;
7162;SDS011;3623;47.098;15.446;2023-03-13T08:03:35;5.60;;;5.03;;
7162;SDS011;3623;47.098;15.446;2023-03-13T08:06:09;7.10;;;4.32;;
7162;SDS011;3623;47.098;15.446;2023-03-13T08:08:38;7.82;;;5.30;;
7162;SDS011;3623;47.098;15.446;2023-03-13T08:11:07;4.78;;;4.38;;
7162;SDS011;3623;47.098;15.446;2023-03-13T08:13:36;5.80;;;4.55;;
7162;SDS011;3623;47.098;15.446;2023-03-13T08:16:04;6.35;;;5.03;;
7162;SDS011;3623;47.098;15.446;2023-03-13T08:18:33;7.20;;;5.40;;
7162;SDS011;3623;47.098;15.446;2023-03-13T08:21:01;5.03;;;4.53;;
7162;SDS011;3623;47.098;15.446;2023-03-13T08:23:31;5.90;;;5.00;;
7162;SDS011;3623;47.098;15.446;2023-03-13T08:26:02;6.03;;;4.78;;
7162;SDS011;3623;47.098;15.446;2023-03-13T08:28:32;8.88;;;5.70;;
7162;SDS011;3623;47.098;15.446;2023-03-13T08:31:05;4.18;;;3.85;;
7162;SDS011;3623;47.098;15.446;2023-03-13T08:33:33;4.70;;;4.22;;
7162;SDS011;3623;47.098;15.446;2023-03-13T08:36:06;8.00;;;5.05;;
7162;SDS011;3623;47.098;15.446;2023-03-13T08:38:37;6.45;;;4.85;;
7162;SDS011;3623;47.098;15.446;2023-03-13T08:41:06;6.35;;;5.65;;
7162;SDS011;3623;47.098;15.446;2023-03-13T08:43:33;7.68;;;5.10;;
7162;SDS011;3623;47.098;15.446;2023-03-13T08:46:00;5.07;;;4.57;;
7162;SDS011;3623;47.098;15.446;2023-03-13T08:48:28;8.88;;;5.25;;
7162;SDS011;3623;47.098;15.446;2023-03-13T08:50:59;6.85;;;4.85;;
7162;SDS011;3623;47.098;15.446;2023-03-13T08:53:27;7.88;;;5.00;;
7162;SDS011;3623;47.098;15.446;2023-03-13T08:56:00;8.20;;;4.63;;
7162;SDS011;3623;47.098;15.446;2023-03-13T08:58:28;7.18;;;5.18;;
7162;SDS011;3623;47.098;15.446;2023-03-13T09:00:59;16.08;;;5.53;;
7162;SDS011;3623;47.098;15.446;2023-03-13T09:03:27;5.88;;;5.28;;
7162;SDS011;3623;47.098;15.446;2023-03-13T09:05:55;5.82;;;4.80;;
7162;SDS011;3623;47.098;15.446;2023-03-13T09:08:22;5.55;;;4.75;;
7162;SDS011;3623;47.098;15.446;2023-03-13T09:10:53;4.63;;;4.10;;
7162;SDS011;3623;47.098;15.446;2023-03-13T09:13:23;6.93;;;4.32;;
7162;SDS011;3623;47.098;15.446;2023-03-13T09:15:55;7.60;;;5.75;;
7162;SDS011;3623;47.098;15.446;2023-03-13T09:18:23;7.55;;;5.90;;
7162;SDS011;3623;47.098;15.446;2023-03-13T09:20:50;10.13;;;5.63;;
7162;SDS011;3623;47.098;15.446;2023-03-13T09:23:18;5.35;;;4.80;;
7162;SDS011;3623;47.098;15.446;2023-03-13T09:25:47;4.88;;;4.07;;
7162;SDS011;3623;47.098;15.446;2023-03-13T09:28:14;9.15;;;5.85;;
7162;SDS011;3623;47.098;15.446;2023-03-13T09:30:42;14.20;;;6.20;;
7162;SDS011;3623;47.098;15.446;2023-03-13T09:33:10;7.25;;;6.25;;
7162;SDS011;3623;47.098;15.446;2023-03-13T09:35:37;10.18;;;5.72;;
7162;SDS011;3623;47.098;15.446;2023-03-13T09:38:05;6.10;;;5.50;;
7162;SDS011;3623;47.098;15.446;2023-03-13T09:40:35;19.30;;;7.18;;
7162;SDS011;3623;47.098;15.446;2023-03-13T09:43:10;11.52;;;7.25;;
7162;SDS011;3623;47.098;15.446;2023-03-13T09:45:49;6.93;;;6.35;;
7162;SDS011;3623;47.098;15.446;2023-03-13T09:48:23;15.20;;;8.45;;
7162;SDS011;3623;47.098;15.446;2023-03-13T09:50:58;13.38;;;8.88;;
7162;SDS011;3623;47.098;15.446;2023-03-13T09:53:30;13.00;;;7.63;;
7162;SDS011;3623;47.098;15.446;2023-03-13T09:56:04;8.55;;;7.38;;
7162;SDS011;3623;47.098;15.446;2023-03-13T09:58:39;8.60;;;7.47;;
7162;SDS011;3623;47.098;15.446;2023-03-13T10:01:15;11.70;;;8.10;;
7162;SDS011;3623;47.098;15.446;2023-03-13T10:03:47;11.63;;;7.63;;
7162;SDS011;3623;47.098;15.446;2023-03-13T10:06:24;10.95;;;7.82;;
7162;SDS011;3623;47.098;15.446;2023-03-13T10:08:54;12.20;;;8.60;;
7162;SDS011;3623;47.098;15.446;2023-03-13T10:11:26;16.58;;;8.68;;
7162;SDS011;3623;47.098;15.446;2023-03-13T10:13:57;9.00;;;8.10;;
7162;SDS011;3623;47.098;15.446;2023-03-13T10:16:33;14.00;;;8.05;;
7162;SDS011;3623;47.098;15.446;2023-03-13T10:19:08;9.77;;;7.17;;
7162;SDS011;3623;47.098;15.446;2023-03-13T10:21:38;12.10;;;7.13;;
7162;SDS011;3623;47.098;15.446;2023-03-13T10:24:10;8.93;;;6.10;;
7162;SDS011;3623;47.098;15.446;2023-03-13T10:26:43;6.63;;;5.87;;
7162;SDS011;3623;47.098;15.446;2023-03-13T10:29:16;7.50;;;6.67;;
7162;SDS011;3623;47.098;15.446;2023-03-13T10:31:49;10.47;;;7.43;;
7162;SDS011;3623;47.098;15.446;2023-03-13T10:34:22;13.33;;;7.20;;
7162;SDS011;3623;47.098;15.446;2023-03-13T10:36:53;7.63;;;6.43;;
7162;SDS011;3623;47.098;15.446;2023-03-13T10:39:23;6.10;;;5.60;;
7162;SDS011;3623;47.098;15.446;2023-03-13T10:41:55;7.63;;;6.80;;
7162;SDS011;3623;47.098;15.446;2023-03-13T10:44:29;6.30;;;5.50;;
7162;SDS011;3623;47.098;15.446;2023-03-13T10:47:00;7.33;;;6.73;;
7162;SDS011;3623;47.098;15.446;2023-03-13T10:49:29;5.97;;;5.47;;
7162;SDS011;3623;47.098;15.446;2023-03-13T10:51:58;5.23;;;4.73;;
7162;SDS011;3623;47.098;15.446;2023-03-13T10:54:27;8.97;;;6.37;;
7162;SDS011;3623;47.098;15.446;2023-03-13T10:57:20;8.37;;;5.53;;
7162;SDS011;3623;47.098;15.446;2023-03-13T10:59:54;6.33;;;5.70;;
7162;SDS011;3623;47.098;15.446;2023-03-13T11:02:24;9.00;;;5.80;;
7162;SDS011;3623;47.098;15.446;2023-03-13T11:04:53;7.60;;;4.90;;
7162;SDS011;3623;47.098;15.446;2023-03-13T11:07:24;8.30;;;6.00;;
7162;SDS011;3623;47.098;15.446;2023-03-13T11:09:57;8.83;;;5.57;;
7162;SDS011;3623;47.098;15.446;2023-03-13T11:12:26;6.13;;;5.60;;
7162;SDS011;3623;47.098;15.446;2023-03-13T11:14:56;9.03;;;5.40;;
7162;SDS011;3623;47.098;15.446;2023-03-13T11:17:29;6.80;;;5.40;;
7162;SDS011;3623;47.098;15.446;2023-03-13T11:20:02;7.53;;;6.20;;
7162;SDS011;3623;47.098;15.446;2023-03-13T11:22:39;6.90;;;6.20;;
7162;SDS011;3623;47.098;15.446;2023-03-13T11:25:18;5.37;;;4.87;;
7162;SDS011;3623;47.098;15.446;2023-03-13T11:27:49;10.70;;;5.67;;
7162;SDS011;3623;47.098;15.446;2023-03-13T11:30:37;6.13;;;5.63;;
7162;SDS011;3623;47.098;15.446;2023-03-13T11:33:17;6.90;;;6.30;;
7162;SDS011;3623;47.098;15.446;2023-03-13T11:35:54;6.50;;;5.90;;
7162;SDS011;3623;47.098;15.446;2023-03-13T11:38:28;7.30;;;5.67;;
7162;SDS011;3623;47.098;15.446;2023-03-13T11:44:00;5.73;;;5.23;;
7162;SDS011;3623;47.098;15.446;2023-03-13T11:46:41;6.10;;;5.50;;
7162;SDS011;3623;47.098;15.446;2023-03-13T11:49:23;6.43;;;5.80;;
7162;SDS011;3623;47.098;15.446;2023-03-13T11:52:18;5.60;;;5.10;;
7162;SDS011;3623;47.098;15.446;2023-03-13T11:55:02;7.60;;;6.23;;
7162;SDS011;3623;47.098;15.446;2023-03-13T11:57:55;6.53;;;5.90;;
7162;SDS011;3623;47.098;15.446;2023-03-13T12:00:32;5.20;;;4.80;;
7162;SDS011;3623;47.098;15.446;2023-03-13T12:03:04;6.33;;;4.80;;
7162;SDS011;3623;47.098;15.446;2023-03-13T12:05:42;5.70;;;5.07;;
7162;SDS011;3623;47.098;15.446;2023-03-13T12:08:17;5.50;;;5.00;;
7162;SDS011;3623;47.098;15.446;2023-03-13T12:10:47;6.50;;;5.80;;
7162;SDS011;3623;47.098;15.446;2023-03-13T12:13:21;6.80;;;5.37;;
7162;SDS011;3623;47.098;15.446;2023-03-13T12:15:55;5.23;;;4.80;;
7162;SDS011;3623;47.098;15.446;2023-03-13T12:18:29;4.27;;;3.87;;
7162;SDS011;3623;47.098;15.446;2023-03-13T12:21:03;5.67;;;5.27;;
7162;SDS011;3623;47.098;15.446;2023-03-13T12:23:39;6.23;;;4.70;;
7162;SDS011;3623;47.098;15.446;2023-03-13T12:26:12;7.80;;;5.07;;
7162;SDS011;3623;47.098;15.446;2023-03-13T12:28:42;5.80;;;4.53;;
7162;SDS011;3623;47.098;15.446;2023-03-13T12:31:18;5.50;;;4.90;;
7162;SDS011;3623;47.098;15.446;2023-03-13T12:33:52;4.23;;;3.83;;
7162;SDS011;3623;47.098;15.446;2023-03-13T12:36:27;6.03;;;4.30;;
7162;SDS011;3623;47.098;15.446;2023-03-13T12:39:01;4.67;;;4.20;;
7162;SDS011;3623;47.098;15.446;2023-03-13T12:41:37;4.97;;;4.57;;
7162;SDS011;3623;47.098;15.446;2023-03-13T12:44:08;11.23;;;4.90;;
7162;SDS011;3623;47.098;15.446;2023-03-13T12:46:41;5.80;;;4.63;;
7162;SDS011;3623;47.098;15.446;2023-03-13T12:52:24;7.53;;;5.47;;
7162;SDS011;3623;47.098;15.446;2023-03-13T12:55:08;5.23;;;4.60;;
7162;SDS011;3623;47.098;15.446;2023-03-13T12:58:09;4.60;;;4.30;;
7162;SDS011;3623;47.098;15.446;2023-03-13T13:00:41;5.40;;;5.00;;
7162;SDS011;3623;47.098;15.446;2023-03-13T13:03:17;5.37;;;4.90;;
7162;SDS011;3623;47.098;15.446;2023-03-13T13:05:57;6.37;;;5.20;;
7162;SDS011;3623;47.098;15.446;2023-03-13T13:08:27;4.80;;;4.13;;
7162;SDS011;3623;47.098;15.446;2023-03-13T13:17:33;6.67;;;4.90;;
7162;SDS011;3623;47.098;15.446;2023-03-13T13:20:33;4.37;;;3.97;;
7162;SDS011;3623;47.098;15.446;2023-03-13T13:23:19;5.13;;;4.73;;
7162;SDS011;3623;47.098;15.446;2023-03-13T13:32:34;4.80;;;3.90;;
7162;SDS011;3623;47.098;15.446;2023-03-13T13:35:04;3.20;;;3.00;;
7162;SDS011;3623;47.098;15.446;2023-03-13T13:37:45;4.93;;;3.60;;
7162;SDS011;3623;47.098;15.446;2023-03-13T13:40:19;3.63;;;3.13;;
7162;SDS011;3623;47.098;15.446;2023-03-13T13:42:49;3.20;;;2.70;;
7162;SDS011;3623;47.098;15.446;2023-03-13T13:45:23;3.00;;;2.80;;
7162;SDS011;3623;47.098;15.446;2023-03-13T13:54:00;2.43;;;2.33;;
7162;SDS011;3623;47.098;15.446;2023-03-13T13:56:30;2.90;;;2.70;;
7162;SDS011;3623;47.098;15.446;2023-03-13T14:02:10;2.97;;;2.77;;
7162;SDS011;3623;47.098;15.446;2023-03-13T14:04:50;5.77;;;3.73;;
7162;SDS011;3623;47.098;15.446;2023-03-13T14:07:30;2.70;;;2.50;;
7162;SDS011;3623;47.098;15.446;2023-03-13T14:10:12;2.90;;;2.70;;
7162;SDS011;3623;47.098;15.446;2023-03-13T14:12:50;5.47;;;2.53;;
7162;SDS011;3623;47.098;15.446;2023-03-13T14:15:20;2.90;;;2.70;;
7162;SDS011;3623;47.098;15.446;2023-03-13T14:17:49;2.70;;;2.50;;
7162;SDS011;3623;47.098;15.446;2023-03-13T14:20:22;5.23;;;2.73;;
7162;SDS011;3623;47.098;15.446;2023-03-13T14:22:52;3.87;;;2.77;;
7162;SDS011;3623;47.098;15.446;2023-03-13T14:25:21;3.47;;;3.27;;
7162;SDS011;3623;47.098;15.446;2023-03-13T14:27:50;4.07;;;3.50;;
7162;SDS011;3623;47.098;15.446;2023-03-13T14:30:19;4.00;;;3.47;;
7162;SDS011;3623;47.098;15.446;2023-03-13T14:32:47;3.83;;;3.53;;
7162;SDS011;3623;47.098;15.446;2023-03-13T14:35:17;3.37;;;3.07;;
7162;SDS011;3623;47.098;15.446;2023-03-13T14:37:47;2.80;;;2.60;;
7162;SDS011;3623;47.098;15.446;2023-03-13T14:43:04;3.60;;;3.03;;
7162;SDS011;3623;47.098;15.446;2023-03-13T14:45:46;4.07;;;3.77;;
7162;SDS011;3623;47.098;15.446;2023-03-13T14:48:17;3.57;;;3.27;;
7162;SDS011;3623;47.098;15.446;2023-03-13T14:50:47;4.10;;;3.00;;
7162;SDS011;3623;47.098;15.446;2023-03-13T14:53:15;4.00;;;3.50;;
7162;SDS011;3623;47.098;15.446;2023-03-13T14:55:45;4.20;;;3.90;;
7162;SDS011;3623;47.098;15.446;2023-03-13T14:58:27;3.57;;;3.37;;
7162;SDS011;3623;47.098;15.446;2023-03-13T15:00:55;5.20;;;4.70;;
7162;SDS011;3623;47.098;15.446;2023-03-13T15:03:28;5.03;;;3.63;;
7162;SDS011;3623;47.098;15.446;2023-03-13T15:06:04;5.17;;;3.07;;
7162;SDS011;3623;47.098;15.446;2023-03-13T15:08:42;4.20;;;3.80;;
7162;SDS011;3623;47.098;15.446;2023-03-13T15:11:21;3.73;;;3.20;;
7162;SDS011;3623;47.098;15.446;2023-03-13T15:13:54;4.00;;;3.50;;
7162;SDS011;3623;47.098;15.446;2023-03-13T15:16:23;4.40;;;4.00;;
7162;SDS011;3623;47.098;15.446;2023-03-13T15:18:52;7.43;;;3.50;;
7162;SDS011;3623;47.098;15.446;2023-03-13T15:21:29;5.90;;;3.73;;
7162;SDS011;3623;47.098;15.446;2023-03-13T15:23:59;5.53;;;4.23;;
7162;SDS011;3623;47.098;15.446;2023-03-13T15:26:28;4.60;;;4.23;;
7162;SDS011;3623;47.098;15.446;2023-03-13T15:28:56;10.90;;;3.60;;
7162;SDS011;3623;47.098;15.446;2023-03-13T15:31:25;4.37;;;4.07;;
7162;SDS011;3623;47.098;15.446;2023-03-13T15:33:55;3.43;;;3.10;;
7162;SDS011;3623;47.098;15.446;2023-03-13T15:36:25;8.60;;;3.10;;
7162;SDS011;3623;47.098;15.446;2023-03-13T15:38:54;7.27;;;3.80;;
7162;SDS011;3623;47.098;15.446;2023-03-13T15:41:21;3.57;;;3.30;;
7162;SDS011;3623;47.098;15.446;2023-03-13T15:43:49;4.93;;;4.00;;
7162;SDS011;3623;47.098;15.446;2023-03-13T15:46:21;7.83;;;3.33;;
7162;SDS011;3623;47.098;15.446;2023-03-13T15:48:50;4.33;;;3.87;;
7162;SDS011;3623;47.098;15.446;2023-03-13T15:51:18;5.60;;;3.20;;
7162;SDS011;3623;47.098;15.446;2023-03-13T15:53:46;9.40;;;3.20;;
7162;SDS011;3623;47.098;15.446;2023-03-13T15:56:14;4.50;;;3.17;;
7162;SDS011;3623;47.098;15.446;2023-03-13T15:58:42;4.10;;;2.97;;